Time;durP1;ratioP1;P1;durP2;ratioP2;P2;SDS_P1;SDS_P2;PMS_P1;PMS_P2;Temp;Humidity;BMP_temperature;BMP_pressure;BME280_temperature;BME280_humidity;BME280_pressure;Samples;Min_cycle;Max_cycle;Signal;HPM_P1;HPM_P2
2023/12/25 00:00:22;;;;;;;4.60;1.90;;;;;;;7.84;100.00;97652.10;219323;1256;140869;-70
2023/12/25 00:05:46;;;;;;;1.80;1.70;;;;;;;7.92;100.00;97646.11;219686;1254;236708;-69
2023/12/25 00:10:51;;;;;;;1.70;1.60;;;;;;;7.99;100.00;97646.27;218351;1257;139546;-68
2023/12/25 00:15:55;;;;;;;1.70;1.60;;;;;;;8.05;100.00;97644.04;220507;1256;141769;-70
2023/12/25 00:21:00;;;;;;;0.90;0.90;;;;;;;8.12;100.00;97631.94;220288;1254;140818;-72
2023/12/25 00:26:04;;;;;;;2.10;0.80;;;;;;;8.17;100.00;97627.78;220406;1254;140154;-69
2023/12/25 00:31:08;;;;;;;1.10;1.00;;;;;;;8.21;100.00;97627.45;219441;1257;142656;-70
2023/12/25 00:36:12;;;;;;;1.40;0.90;;;;;;;8.24;100.00;97619.64;219360;1254;141997;-69
2023/12/25 00:41:16;;;;;;;1.40;1.00;;;;;;;8.26;100.00;97614.52;218211;1256;140440;-69
2023/12/25 00:46:20;;;;;;;1.80;0.60;;;;;;;8.28;100.00;97610.41;217816;1257;140553;-68
2023/12/25 00:51:25;;;;;;;1.50;1.50;;;;;;;8.29;100.00;97605.31;219278;1254;140585;-69
2023/12/25 00:56:28;;;;;;;0.80;0.80;;;;;;;8.31;100.00;97607.81;217569;1256;139866;-69
2023/12/25 01:01:32;;;;;;;4.50;1.00;;;;;;;8.34;100.00;97606.92;219395;1257;141047;-68
2023/12/25 01:06:36;;;;;;;1.90;0.90;;;;;;;8.38;100.00;97605.00;218855;1256;139837;-68
2023/12/25 01:11:41;;;;;;;1.20;0.80;;;;;;;8.42;100.00;97600.00;219032;1256;140052;-68
2023/12/25 01:16:46;;;;;;;3.10;2.00;;;;;;;8.47;100.00;97593.39;218272;1257;140122;-68
2023/12/25 01:21:49;;;;;;;1.80;0.90;;;;;;;8.50;100.00;97606.86;219328;1254;141126;-67
2023/12/25 01:26:53;;;;;;;2.70;1.10;;;;;;;8.54;100.00;97607.60;218913;1257;141370;-70
2023/12/25 01:31:57;;;;;;;1.70;1.00;;;;;;;8.58;100.00;97615.58;218451;1254;139976;-72
2023/12/25 01:37:01;;;;;;;1.70;1.10;;;;;;;8.62;100.00;97649.40;219246;1254;141024;-71
2023/12/25 01:42:05;;;;;;;2.20;1.40;;;;;;;8.66;100.00;97674.52;218704;1254;140392;-72
2023/12/25 01:47:09;;;;;;;1.10;1.00;;;;;;;8.69;100.00;97678.11;217886;1254;140018;-70
2023/12/25 01:52:13;;;;;;;1.60;1.50;;;;;;;8.69;100.00;97701.05;219537;1254;140178;-72
2023/12/25 01:57:17;;;;;;;1.40;1.10;;;;;;;8.67;100.00;97696.44;219535;1254;139903;-72
2023/12/25 02:02:22;;;;;;;0.80;0.80;;;;;;;8.68;100.00;97707.64;220511;1254;141839;-72
2023/12/25 02:07:27;;;;;;;1.50;0.90;;;;;;;8.65;100.00;97711.95;219070;1254;140153;-72
2023/12/25 02:12:31;;;;;;;0.40;0.40;;;;;;;8.61;100.00;97719.77;219811;1254;140267;-71
2023/12/25 02:17:36;;;;;;;1.20;0.50;;;;;;;8.58;100.00;97728.12;220901;1253;139866;-70
2023/12/25 02:22:42;;;;;;;0.60;0.60;;;;;;;8.57;100.00;97736.40;219352;1254;140439;-69
2023/12/25 02:27:47;;;;;;;1.00;0.70;;;;;;;8.57;100.00;97748.73;220320;1254;140123;-68
2023/12/25 02:32:52;;;;;;;0.90;0.80;;;;;;;8.54;100.00;97755.40;219051;1254;140784;-69
2023/12/25 02:37:56;;;;;;;4.20;1.00;;;;;;;8.52;100.00;97772.29;219561;1253;141036;-69
2023/12/25 02:42:59;;;;;;;0.50;0.40;;;;;;;8.50;100.00;97785.41;217863;1254;140179;-68
2023/12/25 02:48:05;;;;;;;0.40;0.40;;;;;;;8.46;100.00;97790.99;219056;1254;140390;-69
2023/12/25 02:53:10;;;;;;;2.40;1.60;;;;;;;8.40;100.00;97787.60;219345;1254;139835;-70
2023/12/25 02:58:14;;;;;;;0.60;0.60;;;;;;;8.33;100.00;97781.11;218923;1254;140538;-69
2023/12/25 03:03:19;;;;;;;0.60;0.60;;;;;;;8.28;100.00;97780.73;217599;1256;139763;-68
2023/12/25 03:08:24;;;;;;;8.00;2.90;;;;;;;8.23;100.00;97793.33;219081;1254;139992;-69
2023/12/25 03:13:29;;;;;;;0.40;0.40;;;;;;;8.18;100.00;97811.75;218583;1254;139976;-69
2023/12/25 03:18:34;;;;;;;1.80;0.40;;;;;;;8.13;100.00;97815.98;218316;1253;140135;-70
2023/12/25 03:23:40;;;;;;;0.60;0.40;;;;;;;8.08;100.00;97821.88;218733;1254;140249;-70
2023/12/25 03:28:46;;;;;;;1.00;0.50;;;;;;;8.03;100.00;97818.67;218771;1254;140389;-70
2023/12/25 03:33:50;;;;;;;0.50;0.50;;;;;;;7.98;100.00;97818.83;218480;1254;140985;-69
2023/12/25 03:38:54;;;;;;;2.00;1.90;;;;;;;7.95;100.00;97839.32;217984;1257;140231;-67
2023/12/25 03:43:59;;;;;;;1.10;0.80;;;;;;;7.91;100.00;97850.38;219046;1254;147390;-68
2023/12/25 03:49:04;;;;;;;0.30;0.30;;;;;;;7.83;100.00;97856.98;219415;1254;140563;-70
2023/12/25 03:54:09;;;;;;;2.00;0.40;;;;;;;7.79;100.00;97858.23;217717;1254;140568;-70
2023/12/25 03:59:13;;;;;;;0.60;0.60;;;;;;;7.73;100.00;97852.97;219385;1254;140523;-68
2023/12/25 04:04:19;;;;;;;0.70;0.60;;;;;;;7.68;100.00;97850.30;220373;1252;140582;-70
2023/12/25 04:09:24;;;;;;;0.80;0.80;;;;;;;7.66;100.00;97862.02;220552;1254;140329;-69
2023/12/25 04:14:28;;;;;;;1.50;0.80;;;;;;;7.67;100.00;97871.67;220548;1253;141883;-70
2023/12/25 04:19:33;;;;;;;0.40;0.40;;;;;;;7.71;100.00;97877.73;219865;1253;140379;-73
2023/12/25 04:24:39;;;;;;;4.20;1.60;;;;;;;7.75;100.00;97873.45;218483;1256;140147;-73
2023/12/25 04:29:44;;;;;;;1.80;0.60;;;;;;;7.79;100.00;97869.27;219384;1253;142143;-72
2023/12/25 04:34:49;;;;;;;3.60;0.80;;;;;;;7.83;100.00;97880.80;218167;1256;140265;-72
2023/12/25 04:39:54;;;;;;;0.70;0.70;;;;;;;7.85;100.00;97882.51;218883;1253;140597;-73
2023/12/25 04:44:59;;;;;;;0.80;0.60;;;;;;;7.83;99.94;97888.77;218113;1253;140101;-72
2023/12/25 04:50:04;;;;;;;0.80;0.40;;;;;;;7.80;99.90;97899.20;218520;1254;139995;-68
2023/12/25 04:55:09;;;;;;;1.10;0.90;;;;;;;7.77;99.77;97908.20;218531;1253;139366;-67
2023/12/25 05:00:14;;;;;;;1.70;0.40;;;;;;;7.76;99.82;97919.66;219440;1253;139571;-67
2023/12/25 05:05:18;;;;;;;0.70;0.70;;;;;;;7.75;99.75;97916.20;219297;1254;141166;-69
2023/12/25 05:10:22;;;;;;;0.60;0.50;;;;;;;7.77;99.84;97915.58;219386;1254;141475;-68
2023/12/25 05:15:27;;;;;;;1.20;0.50;;;;;;;7.80;99.57;97931.98;218682;1253;139669;-68
2023/12/25 05:20:31;;;;;;;2.90;1.00;;;;;;;7.81;99.22;97932.73;218110;1256;140572;-66
2023/12/25 05:25:36;;;;;;;1.10;0.50;;;;;;;7.81;99.49;97933.69;219705;1253;140095;-68
2023/12/25 05:30:40;;;;;;;2.20;0.70;;;;;;;7.83;99.13;97937.73;218247;1256;141164;-70
2023/12/25 05:35:45;;;;;;;1.30;1.20;;;;;;;7.86;99.16;97947.55;218296;1253;139800;-72
2023/12/25 05:40:50;;;;;;;1.80;0.50;;;;;;;7.91;98.98;97944.29;219052;1254;139585;-71
2023/12/25 05:45:55;;;;;;;3.70;1.80;;;;;;;7.94;98.80;97936.13;217866;1253;139809;-70
2023/12/25 05:50:59;;;;;;;0.60;0.60;;;;;;;7.98;98.99;97934.98;217287;1254;139332;-72
2023/12/25 05:56:05;;;;;;;0.40;0.40;;;;;;;8.02;98.73;97950.98;217537;1256;140492;-70
2023/12/25 06:01:12;;;;;;;1.70;0.70;;;;;;;8.04;98.91;97955.66;217483;1256;142354;-71
2023/12/25 06:06:17;;;;;;;13.60;2.50;;;;;;;8.08;98.87;97959.13;220175;1253;141199;-73
2023/12/25 06:11:22;;;;;;;2.80;1.10;;;;;;;8.10;98.50;97960.52;218703;1254;140158;-73
2023/12/25 06:16:26;;;;;;;2.70;1.20;;;;;;;8.13;98.17;97946.61;219471;1253;140584;-73
2023/12/25 06:21:30;;;;;;;3.40;0.80;;;;;;;8.17;97.89;97956.02;220486;1253;140724;-75
2023/12/25 06:26:35;;;;;;;2.00;1.00;;;;;;;8.20;97.78;97956.03;219384;1253;140150;-77
2023/12/25 06:31:39;;;;;;;1.00;0.90;;;;;;;8.24;97.50;97950.95;220077;1254;140844;-76
2023/12/25 06:36:43;;;;;;;1.80;0.80;;;;;;;8.28;97.37;97962.02;219015;1253;140441;-71
2023/12/25 06:41:48;;;;;;;1.50;0.90;;;;;;;8.31;97.48;97966.02;218653;1254;140794;-68
2023/12/25 06:46:52;;;;;;;0.80;0.70;;;;;;;8.31;97.24;97967.67;218521;1254;139729;-70
2023/12/25 06:51:56;;;;;;;4.90;1.50;;;;;;;8.32;97.43;97969.85;217651;1253;139737;-68
2023/12/25 06:57:00;;;;;;;3.00;0.90;;;;;;;8.29;97.57;97977.96;217608;1256;140665;-69
2023/12/25 07:02:07;;;;;;;2.40;1.60;;;;;;;8.26;97.94;97971.64;217305;1254;140450;-69
2023/12/25 07:07:12;;;;;;;1.70;1.60;;;;;;;8.21;98.14;97973.98;218859;1253;139692;-68
2023/12/25 07:12:16;;;;;;;2.90;1.20;;;;;;;8.16;98.40;97954.64;218347;1253;142298;-69
2023/12/25 07:17:21;;;;;;;2.30;0.70;;;;;;;8.13;98.15;97942.59;219440;1254;140113;-71
2023/12/25 07:22:29;;;;;;;2.50;1.20;;;;;;;8.10;98.48;97945.65;218923;1256;140471;-70
2023/12/25 07:27:34;;;;;;;2.40;2.20;;;;;;;8.08;98.82;97953.60;218953;1253;140084;-69
2023/12/25 07:32:40;;;;;;;3.10;0.70;;;;;;;8.08;99.31;97955.52;217571;1254;140942;-69
2023/12/25 07:37:45;;;;;;;1.70;1.40;;;;;;;8.08;99.13;97948.35;217859;1254;140726;-71
2023/12/25 07:42:50;;;;;;;1.20;0.80;;;;;;;8.05;98.93;97960.17;217578;1254;140551;-70
2023/12/25 07:47:55;;;;;;;2.90;0.90;;;;;;;8.04;99.23;97954.28;217970;1254;139807;-70
2023/12/25 07:53:02;;;;;;;2.30;0.90;;;;;;;8.06;99.13;97960.81;218597;1253;141661;-68
2023/12/25 07:58:07;;;;;;;1.30;1.20;;;;;;;8.11;98.88;97949.41;219033;1253;139828;-68
2023/12/25 08:03:12;;;;;;;3.10;1.60;;;;;;;8.14;98.94;97959.84;219253;1253;140438;-68
2023/12/25 08:08:17;;;;;;;4.80;4.40;;;;;;;8.21;98.81;97965.70;220450;1253;139982;-68
2023/12/25 08:13:21;;;;;;;1.60;1.50;;;;;;;8.24;98.57;97964.21;218899;1254;141327;-68
2023/12/25 08:18:26;;;;;;;1.80;1.70;;;;;;;8.29;98.58;97971.48;220432;1253;140210;-68
2023/12/25 08:23:31;;;;;;;3.60;2.20;;;;;;;8.37;98.45;97976.69;220451;1253;140887;-68
2023/12/25 08:28:40;;;;;;;6.50;2.70;;;;;;;8.47;98.21;97989.14;219365;1253;141566;-68
2023/12/25 08:33:45;;;;;;;3.20;2.00;;;;;;;8.54;97.98;97993.29;220152;1254;140377;-69
2023/12/25 08:38:50;;;;;;;1.30;1.20;;;;;;;8.54;97.80;98004.19;219690;1254;139899;-68
2023/12/25 08:43:54;;;;;;;2.80;1.90;;;;;;;8.56;98.06;98022.33;220103;1252;143253;-68
2023/12/25 08:48:59;;;;;;;2.90;1.40;;;;;;;8.60;97.67;98019.09;218217;1256;139944;-71
2023/12/25 08:54:04;;;;;;;1.90;1.80;;;;;;;8.61;97.59;98005.96;218521;1253;140683;-69
2023/12/25 08:59:09;;;;;;;6.20;2.70;;;;;;;8.64;97.78;98012.30;219387;1254;139944;-71
2023/12/25 09:04:15;;;;;;;2.10;1.90;;;;;;;8.69;97.26;98014.70;218433;1254;140253;-69
2023/12/25 09:09:19;;;;;;;2.70;1.80;;;;;;;8.73;96.95;98011.95;218256;1254;139470;-69
2023/12/25 09:14:23;;;;;;;5.00;3.00;;;;;;;8.81;97.00;98007.02;217974;1256;139919;-69
2023/12/25 09:19:28;;;;;;;3.80;1.90;;;;;;;8.86;96.81;98014.77;218359;1256;140799;-67
2023/12/25 09:24:33;;;;;;;4.20;1.90;;;;;;;8.90;96.88;98014.16;218032;1253;139665;-68
2023/12/25 09:29:38;;;;;;;2.10;1.50;;;;;;;8.94;96.57;98015.45;219466;1254;139815;-68
2023/12/25 09:34:42;;;;;;;3.70;1.10;;;;;;;8.93;96.68;98014.34;217710;1254;140336;-69
2023/12/25 09:39:59;;;;;;;2.80;1.10;;;;;;;8.91;96.54;98012.04;218981;1253;139980;-68
2023/12/25 09:45:05;;;;;;;2.60;1.10;;;;;;;8.82;96.67;98022.15;218069;1254;155465;-70
2023/12/25 09:50:11;;;;;;;1.40;1.30;;;;;;;8.73;96.83;98010.46;218569;1252;140365;-68
2023/12/25 09:55:17;;;;;;;1.80;1.60;;;;;;;8.65;97.24;98009.80;217785;1254;139834;-69
2023/12/25 10:00:23;;;;;;;1.10;1.10;;;;;;;8.59;97.38;98012.40;219093;1253;140862;-68
2023/12/25 10:05:29;;;;;;;3.70;1.80;;;;;;;8.53;97.41;98037.05;219691;1253;139975;-71
2023/12/25 10:10:37;;;;;;;2.30;1.90;;;;;;;8.52;97.77;98029.55;219051;1254;141620;-71
2023/12/25 10:15:43;;;;;;;;;;;;;;;8.57;98.07;98013.39;218295;1256;141179;-69
2023/12/25 10:20:56;;;;;;;6.30;1.90;;;;;;;8.67;98.15;97988.13;218779;1254;127677;-70
2023/12/25 10:26:05;;;;;;;1.20;1.00;;;;;;;8.81;98.14;97984.21;219194;1253;139626;-71
2023/12/25 10:31:10;;;;;;;2.80;1.30;;;;;;;8.97;97.88;97994.14;219161;1253;140528;-70
2023/12/25 10:36:15;;;;;;;1.80;1.10;;;;;;;9.05;97.03;97999.73;218773;1254;141085;-70
2023/12/25 10:41:22;;;;;;;1.30;1.20;;;;;;;9.12;97.23;98000.73;218415;1256;141670;-70
2023/12/25 10:46:36;;;;;;;3.60;1.50;;;;;;;9.25;97.32;97993.21;218147;1253;140360;-70
2023/12/25 10:51:45;;;;;;;5.20;1.90;;;;;;;9.42;97.31;98005.33;219112;1253;140844;-70
2023/12/25 10:56:50;;;;;;;1.90;1.80;;;;;;;9.41;96.72;98014.58;217951;1256;139780;-71
2023/12/25 11:02:00;;;;;;;2.10;1.30;;;;;;;9.47;96.50;98024.72;218283;1254;140381;-69
2023/12/25 11:07:06;;;;;;;1.90;1.40;;;;;;;9.46;95.87;98026.37;219372;1256;139753;-71
2023/12/25 11:12:15;;;;;;;4.30;1.60;;;;;;;9.51;95.90;98023.52;218746;1254;140511;-70
2023/12/25 11:17:20;;;;;;;1.70;1.40;;;;;;;9.70;96.05;98047.18;218771;1253;141345;-71
2023/12/25 11:22:29;;;;;;;3.70;1.60;;;;;;;9.76;95.43;98048.02;218435;1252;142121;-70
2023/12/25 11:27:36;;;;;;;1.60;1.50;;;;;;;9.85;95.05;98054.37;218754;1254;140686;-71
2023/12/25 11:32:45;;;;;;;3.50;1.10;;;;;;;9.87;94.13;98052.55;219268;1256;211492;-71
2023/12/25 11:38:11;;;;;;;1.00;0.90;;;;;;;9.80;93.42;98067.57;218217;1253;140129;-73
2023/12/25 11:43:20;;;;;;;3.30;1.10;;;;;;;9.74;92.45;98074.85;217811;1256;141742;-72
2023/12/25 11:48:28;;;;;;;2.60;1.10;;;;;;;9.70;91.86;98079.33;218173;1253;139650;-72
2023/12/25 11:53:40;;;;;;;2.20;1.60;;;;;;;9.72;91.45;98080.76;219120;1253;139565;-71
2023/12/25 11:58:46;;;;;;;1.10;1.00;;;;;;;9.70;90.69;98091.88;218669;1253;139547;-76
2023/12/25 12:03:51;;;;;;;5.70;2.10;;;;;;;9.65;90.33;98095.88;217850;1256;141466;-71
2023/12/25 12:08:58;;;;;;;1.30;0.90;;;;;;;9.68;89.74;98115.24;218871;1254;139740;-70
2023/12/25 12:14:07;;;;;;;2.90;2.30;;;;;;;9.62;89.09;98118.23;219857;1253;139472;-71
2023/12/25 12:19:14;;;;;;;;;;;;;;;9.54;88.64;98129.17;218722;1253;140403;-67
2023/12/25 12:24:25;;;;;;;3.90;1.50;;;;;;;9.62;88.42;98120.45;219633;1254;126385;-69
2023/12/25 12:29:30;;;;;;;1.50;1.40;;;;;;;9.75;87.94;98114.54;219388;1256;139704;-69
2023/12/25 12:34:36;;;;;;;1.80;1.00;;;;;;;9.85;87.29;98129.04;219837;1256;140059;-70
2023/12/25 12:39:42;;;;;;;2.70;1.10;;;;;;;9.93;86.79;98133.19;219583;1254;140455;-70
2023/12/25 12:44:52;;;;;;;0.80;0.70;;;;;;;9.93;85.84;98153.89;218861;1256;142177;-68
2023/12/25 12:49:57;;;;;;;4.20;3.60;;;;;;;9.82;85.06;98149.33;218512;1256;140450;-71
2023/12/25 12:55:03;;;;;;;1.50;1.10;;;;;;;9.70;84.73;98158.08;218047;1254;139968;-70
2023/12/25 13:00:08;;;;;;;2.80;1.30;;;;;;;9.59;84.32;98167.92;218798;1253;140850;-76
2023/12/25 13:05:14;;;;;;;3.50;1.10;;;;;;;9.51;84.17;98179.30;218264;1254;142341;-70
2023/12/25 13:10:19;;;;;;;8.60;2.10;;;;;;;9.43;83.67;98189.58;218853;1254;139830;-74
2023/12/25 13:15:23;;;;;;;4.20;1.40;;;;;;;9.37;83.97;98205.52;218084;1256;139383;-70
2023/12/25 13:20:32;;;;;;;1.50;0.90;;;;;;;9.31;83.85;98210.92;218213;1254;161540;-71
2023/12/25 13:25:37;;;;;;;0.80;0.80;;;;;;;9.25;83.99;98224.27;218348;1253;140335;-70
2023/12/25 13:30:42;;;;;;;3.30;1.00;;;;;;;9.21;83.79;98223.29;218037;1254;140259;-72
2023/12/25 13:35:49;;;;;;;2.80;1.30;;;;;;;9.15;84.11;98219.41;219135;1256;140717;-70
2023/12/25 13:40:54;;;;;;;5.90;2.00;;;;;;;9.09;84.26;98222.05;217867;1253;140938;-70
2023/12/25 13:45:58;;;;;;;4.40;2.00;;;;;;;9.05;84.60;98237.88;219622;1254;139716;-70
2023/12/25 13:51:04;;;;;;;2.50;2.10;;;;;;;8.99;84.78;98235.30;218760;1256;140586;-71
2023/12/25 13:56:12;;;;;;;1.20;1.20;;;;;;;8.95;85.25;98244.95;219916;1253;141273;-70
2023/12/25 14:01:20;;;;;;;1.80;1.30;;;;;;;8.94;85.29;98245.70;218781;1254;140614;-71
2023/12/25 14:06:27;;;;;;;2.30;1.40;;;;;;;8.93;85.08;98252.70;218530;1253;139432;-71
2023/12/25 14:11:31;;;;;;;6.20;2.20;;;;;;;8.87;85.31;98260.92;219930;1254;140162;-71
2023/12/25 14:16:35;;;;;;;3.40;2.70;;;;;;;8.84;85.24;98268.27;219153;1253;139925;-72
2023/12/25 14:21:38;;;;;;;6.00;1.80;;;;;;;8.84;85.39;98276.23;219458;1254;139959;-71
2023/12/25 14:26:42;;;;;;;5.00;1.50;;;;;;;8.84;85.26;98289.73;219328;1254;140123;-70
2023/12/25 14:31:45;;;;;;;5.00;1.70;;;;;;;8.80;84.96;98299.06;219862;1254;139892;-69
2023/12/25 14:36:49;;;;;;;7.90;1.40;;;;;;;8.74;84.70;98303.75;220137;1257;140346;-71
2023/12/25 14:41:53;;;;;;;2.90;2.60;;;;;;;8.73;84.64;98300.14;218405;1256;139511;-69
2023/12/25 14:46:57;;;;;;;1.90;1.60;;;;;;;8.72;84.44;98313.52;219334;1254;140880;-69
2023/12/25 14:52:00;;;;;;;2.70;1.60;;;;;;;8.71;84.35;98325.26;218138;1255;141944;-68
2023/12/25 14:57:05;;;;;;;9.40;2.30;;;;;;;8.69;84.23;98334.37;217864;1253;139772;-70
2023/12/25 15:02:16;;;;;;;3.00;1.70;;;;;;;8.63;83.69;98343.84;218658;1256;243634;-71
2023/12/25 15:07:21;;;;;;;5.70;1.50;;;;;;;8.58;83.44;98348.21;217973;1254;140239;-68
2023/12/25 15:12:25;;;;;;;3.30;1.50;;;;;;;8.46;83.07;98359.09;218161;1254;140698;-66
2023/12/25 15:17:30;;;;;;;4.30;1.40;;;;;;;8.34;82.57;98365.29;218915;1254;209708;-66
2023/12/25 15:22:34;;;;;;;2.30;1.80;;;;;;;8.24;82.79;98379.27;217594;1254;143501;-67
2023/12/25 15:27:38;;;;;;;3.90;1.10;;;;;;;8.14;82.08;98379.88;218822;1254;140527;-67
2023/12/25 15:32:43;;;;;;;3.90;2.70;;;;;;;8.05;82.00;98384.88;218637;1256;140838;-67
2023/12/25 15:37:47;;;;;;;3.40;1.30;;;;;;;7.98;82.05;98396.32;219356;1256;139850;-67
2023/12/25 15:42:51;;;;;;;4.10;1.60;;;;;;;7.90;81.84;98408.30;218925;1254;695243;-67
2023/12/25 15:47:56;;;;;;;3.50;1.60;;;;;;;7.82;81.54;98409.43;219126;1254;140309;-67
2023/12/25 15:53:04;;;;;;;3.70;1.60;;;;;;;7.79;81.97;98420.38;220553;1253;140643;-67
2023/12/25 15:58:08;;;;;;;2.30;1.90;;;;;;;7.81;81.93;98423.85;220285;1254;140955;-66
2023/12/25 16:03:11;;;;;;;4.30;1.60;;;;;;;7.85;82.07;98425.42;220157;1254;139768;-68
2023/12/25 16:08:15;;;;;;;2.80;1.10;;;;;;;7.87;81.92;98436.11;219843;1254;140913;-66
2023/12/25 16:13:19;;;;;;;3.60;1.30;;;;;;;7.88;82.31;98443.88;219631;1254;141248;-67
2023/12/25 16:18:23;;;;;;;5.40;1.70;;;;;;;7.91;82.29;98453.31;219969;1254;140504;-66
2023/12/25 16:23:28;;;;;;;3.90;1.70;;;;;;;7.92;82.30;98457.30;219757;1254;140326;-67
2023/12/25 16:28:33;;;;;;;8.00;2.10;;;;;;;7.94;82.40;98471.38;218796;1257;139595;-67
2023/12/25 16:33:37;;;;;;;4.40;2.00;;;;;;;7.93;82.45;98472.54;219146;1254;139915;-66
2023/12/25 16:38:44;;;;;;;3.90;2.00;;;;;;;7.93;82.53;98476.15;219060;1256;141747;-67
2023/12/25 16:43:48;;;;;;;3.30;1.80;;;;;;;7.91;82.48;98500.55;219589;1254;140150;-67
2023/12/25 16:48:52;;;;;;;3.40;1.50;;;;;;;7.93;82.87;98507.84;218319;1254;139629;-67
2023/12/25 16:53:57;;;;;;;3.80;1.80;;;;;;;7.92;82.83;98513.65;219390;1255;139375;-66
2023/12/25 16:59:02;;;;;;;6.30;1.80;;;;;;;7.88;83.06;98524.85;218457;1254;139721;-67
2023/12/25 17:04:11;;;;;;;2.30;1.50;;;;;;;7.83;83.06;98537.73;218368;1254;139909;-67
2023/12/25 17:09:15;;;;;;;3.60;2.10;;;;;;;7.74;83.38;98545.20;217985;1256;140737;-66
2023/12/25 17:14:21;;;;;;;3.70;2.60;;;;;;;7.72;83.60;98549.84;219084;1253;139339;-69
2023/12/25 17:19:25;;;;;;;4.60;2.30;;;;;;;7.71;83.94;98544.95;217850;1254;139457;-69
2023/12/25 17:24:30;;;;;;;4.50;2.10;;;;;;;7.72;84.13;98547.98;218667;1256;141076;-70
2023/12/25 17:29:36;;;;;;;9.30;2.20;;;;;;;7.73;84.37;98561.48;218145;1257;139714;-67
2023/12/25 17:34:40;;;;;;;1.90;1.70;;;;;;;7.76;84.28;98565.08;219079;1256;140795;-68
2023/12/25 17:39:46;;;;;;;3.20;1.40;;;;;;;7.76;84.08;98577.33;219060;1254;140034;-68
2023/12/25 17:44:52;;;;;;;;;;;;;;;7.74;83.95;98583.34;218120;1254;139574;-68
2023/12/25 17:50:05;;;;;;;4.90;2.20;;;;;;;7.68;83.58;98600.75;220059;1254;127221;-68
2023/12/25 17:55:15;;;;;;;2.90;1.90;;;;;;;7.63;83.35;98620.70;219393;1255;139605;-68
2023/12/25 18:00:20;;;;;;;4.60;1.60;;;;;;;7.58;83.10;98637.23;220520;1256;140990;-68
2023/12/25 18:05:25;;;;;;;2.80;2.40;;;;;;;7.50;83.00;98646.80;218662;1254;140269;-68
2023/12/25 18:10:30;;;;;;;5.20;1.70;;;;;;;7.38;82.76;98647.83;219376;1254;139642;-69
2023/12/25 18:15:34;;;;;;;4.20;1.50;;;;;;;7.31;82.52;98654.45;219946;1254;140610;-69
2023/12/25 18:20:42;;;;;;;2.50;1.40;;;;;;;7.25;82.48;98662.67;219167;1256;139605;-66
2023/12/25 18:25:48;;;;;;;3.40;2.40;;;;;;;7.19;82.49;98664.85;218450;1256;141613;-68
2023/12/25 18:31:44;;;;;;;8.50;3.30;;;;;;;7.16;82.26;98659.34;218748;1257;139507;-69
2023/12/25 18:36:56;;;;;;;8.60;2.20;;;;;;;7.12;82.15;98666.47;218926;1256;141772;-69
2023/12/25 18:42:01;;;;;;;5.10;1.90;;;;;;;7.08;82.31;98671.52;218620;1256;140205;-65
2023/12/25 18:47:05;;;;;;;4.40;2.20;;;;;;;7.04;82.56;98676.03;219544;1257;139808;-68
2023/12/25 18:52:11;;;;;;;3.00;2.40;;;;;;;7.01;82.88;98668.88;218843;1257;140041;-67
2023/12/25 18:57:20;;;;;;;4.00;2.30;;;;;;;6.99;83.18;98685.92;218928;1257;140353;-67
2023/12/25 19:02:25;;;;;;;5.90;2.40;;;;;;;7.03;83.73;98692.05;219111;1256;141070;-67
2023/12/25 19:07:29;;;;;;;3.10;2.80;;;;;;;7.09;83.95;98702.98;219411;1254;139485;-68
2023/12/25 19:12:35;;;;;;;3.00;2.20;;;;;;;7.13;84.41;98705.39;219352;1254;139802;-67
2023/12/25 19:17:39;;;;;;;6.20;2.00;;;;;;;7.19;84.82;98714.56;218494;1257;139244;-66
2023/12/25 19:22:43;;;;;;;7.20;1.70;;;;;;;7.23;84.80;98716.39;219212;1256;139800;-66
2023/12/25 19:27:46;;;;;;;2.20;1.90;;;;;;;7.27;85.08;98712.91;219387;1254;142925;-70
2023/12/25 19:32:51;;;;;;;8.50;2.00;;;;;;;7.34;85.13;98713.98;218741;1254;139621;-69
2023/12/25 19:38:06;;;;;;;4.10;1.40;;;;;;;7.37;85.04;98718.64;219679;1254;140519;-67
2023/12/25 19:43:11;;;;;;;2.30;1.30;;;;;;;7.31;84.71;98720.94;219406;1254;140462;-68
2023/12/25 19:48:15;;;;;;;3.10;2.10;;;;;;;7.24;84.75;98736.67;220103;1254;140697;-67
2023/12/25 19:53:19;;;;;;;6.60;1.80;;;;;;;7.23;84.70;98744.85;220615;1253;140007;-66
2023/12/25 19:58:26;;;;;;;3.50;1.50;;;;;;;7.21;84.64;98745.55;219215;1254;141024;-66
2023/12/25 20:03:30;;;;;;;4.70;2.10;;;;;;;7.21;84.68;98744.86;219568;1254;140194;-65
2023/12/25 20:08:38;;;;;;;4.70;2.30;;;;;;;7.19;84.86;98742.77;220445;1254;140039;-67
2023/12/25 20:13:46;;;;;;;4.60;2.30;;;;;;;7.20;84.83;98752.59;219155;1254;139829;-66
2023/12/25 20:18:49;;;;;;;4.20;2.30;;;;;;;7.19;84.93;98743.60;218950;1254;139666;-67
2023/12/25 20:23:55;;;;;;;6.40;3.80;;;;;;;7.16;85.25;98745.41;218191;1257;141612;-67
2023/12/25 20:29:03;;;;;;;5.50;3.20;;;;;;;7.18;85.60;98745.48;219605;1254;139723;-67
2023/12/25 20:34:10;;;;;;;3.30;2.00;;;;;;;7.21;86.17;98751.82;219177;1254;139605;-67
2023/12/25 20:39:22;;;;;;;8.00;2.50;;;;;;;7.25;86.28;98748.71;219824;1254;140227;-67
2023/12/25 20:44:33;;;;;;;4.90;3.50;;;;;;;7.27;86.41;98769.52;219170;1254;140563;-67
2023/12/25 20:49:41;;;;;;;3.30;1.90;;;;;;;7.26;86.80;98772.27;218039;1254;139900;-64
2023/12/25 20:54:52;;;;;;;8.00;2.40;;;;;;;7.24;86.69;98772.64;218680;1254;139975;-66
2023/12/25 20:59:58;;;;;;;5.90;3.00;;;;;;;7.22;86.62;98776.81;218825;1254;141444;-65
2023/12/25 21:05:08;;;;;;;5.30;3.90;;;;;;;7.20;86.84;98789.89;218385;1257;141049;-66
2023/12/25 21:10:17;;;;;;;5.10;2.90;;;;;;;7.16;86.95;98788.09;218473;1254;140239;-67
2023/12/25 21:15:27;;;;;;;7.50;2.60;;;;;;;7.16;87.20;98782.30;218600;1254;140260;-67
2023/12/25 21:20:35;;;;;;;4.30;2.90;;;;;;;7.19;87.23;98779.44;219319;1254;140426;-67
2023/12/25 21:25:44;;;;;;;5.00;3.40;;;;;;;7.22;87.41;98781.58;218645;1257;251079;-66
2023/12/25 21:30:52;;;;;;;10.70;3.10;;;;;;;7.27;87.54;98785.27;218649;1254;140358;-67
2023/12/25 21:36:02;;;;;;;4.20;2.20;;;;;;;7.28;87.17;98800.45;219336;1255;221790;-67
2023/12/25 21:41:08;;;;;;;4.60;2.20;;;;;;;7.25;87.07;98796.33;218920;1254;140169;-67
2023/12/25 21:46:15;;;;;;;5.10;2.80;;;;;;;7.20;87.15;98789.91;220598;1254;139931;-67
2023/12/25 21:51:20;;;;;;;3.90;1.90;;;;;;;7.22;87.07;98782.58;220511;1254;141195;-67
2023/12/25 21:56:32;;;;;;;6.50;3.30;;;;;;;7.27;87.25;98775.27;220301;1253;141005;-68
2023/12/25 22:01:38;;;;;;;4.60;2.00;;;;;;;7.32;87.29;98780.39;218290;1254;140204;-67
2023/12/25 22:06:47;;;;;;;2.00;1.60;;;;;;;7.36;87.27;98789.14;218727;1254;139970;-67
2023/12/25 22:11:56;;;;;;;3.80;2.00;;;;;;;7.37;87.60;98798.65;218290;1254;140682;-67
2023/12/25 22:17:06;;;;;;;4.60;2.00;;;;;;;7.38;87.45;98797.45;217870;1256;139917;-67
2023/12/25 22:22:17;;;;;;;4.50;1.80;;;;;;;7.39;87.62;98799.02;219469;1254;140357;-66
2023/12/25 22:27:27;;;;;;;4.40;1.70;;;;;;;7.39;87.48;98811.58;218158;1254;139792;-69
2023/12/25 22:32:35;;;;;;;3.50;2.70;;;;;;;7.39;87.29;98825.61;218352;1254;141342;-69
2023/12/25 22:37:41;;;;;;;3.80;2.30;;;;;;;7.40;87.04;98821.72;217589;1257;139452;-68
2023/12/25 22:42:48;;;;;;;8.20;2.60;;;;;;;7.39;87.39;98820.22;218461;1254;140057;-68
2023/12/25 22:47:53;;;;;;;3.60;2.20;;;;;;;7.39;87.29;98822.88;218627;1254;139636;-69
2023/12/25 22:53:00;;;;;;;5.00;1.70;;;;;;;7.40;87.38;98826.55;217879;1256;139639;-69
2023/12/25 22:58:06;;;;;;;2.80;2.40;;;;;;;7.39;87.16;98830.09;217995;1254;139698;-68
2023/12/25 23:03:12;;;;;;;3.70;2.40;;;;;;;7.39;87.40;98830.67;218156;1254;139948;-70
2023/12/25 23:08:17;;;;;;;3.70;2.50;;;;;;;7.37;87.48;98825.38;217594;1255;139444;-69
2023/12/25 23:13:25;;;;;;;5.70;2.10;;;;;;;7.37;87.45;98828.77;217489;1254;140320;-69
2023/12/25 23:19:08;;;;;;;3.70;2.20;;;;;;;7.35;87.31;98821.89;218250;1254;141789;-67
2023/12/25 23:24:13;;;;;;;5.30;2.10;;;;;;;7.35;87.29;98819.71;217867;1258;140376;-69
2023/12/25 23:29:20;;;;;;;2.80;2.10;;;;;;;7.32;87.43;98819.30;218280;1253;140445;-70
2023/12/25 23:34:24;;;;;;;4.10;1.80;;;;;;;7.29;87.43;98820.38;217664;1254;139490;-69
2023/12/25 23:39:41;;;;;;;7.10;3.20;;;;;;;7.25;87.59;98820.66;218181;1254;139628;-67